Home   Weather   Poland   Sopot   Past weeks
Flag for Poland

Past Weather in Sopot, Poland — Yesterday and Last 2 Weeks

Currently: 63 °F. Sunny. (Weather station: Gdansk-Rebiechowo, Poland). See more current weather

Past Weather in Sopot — Graph

°F

Sopot Temperature Yesterday

Maximum temperature yesterday: 63 °F (at 1:00 pm)
Minimum temperature yesterday: 48 °F (at 6:30 am)
Average temperature yesterday: 54 °F

High & Low Weather Summary for the Past Weeks

 TemperatureHumidityPressure
High68 °F (Sep 12, 4:30 pm)100% (Sep 14, 6:00 am)30.21 "Hg (Sep 14, 6:00 am)
Low43 °F (Sep 21, 3:30 am)55% (Sep 21, 1:00 pm)29.39 "Hg (Sep 23, 9:30 pm)
Average55 °F84%29.97 "Hg
* Reported Sep 12 3:00 pm — Sep 27 3:00 pm, Sopot. Weather by CustomWeather, © 2021

Note: Actual official high and low records may vary slightly from our data, if they occured in-between our weather recording intervals... More about our weather records

Sopot Weather History for the Previous 24 Hours

Scroll right to see more
 ConditionsComfort  
Time TempWeatherWind HumidityBarometerVisibility
3:00 pm
Mon, Sep 27
63 °FSunny.17 mph56%30.15 "Hg10 mi
2:30 pm63 °FSunny.17 mph56%30.15 "Hg10 mi
2:00 pm63 °FSunny.20 mph56%30.15 "Hg10 mi
1:00 pm63 °FSunny.14 mph56%30.18 "Hg10 mi
12:30 pm61 °FSunny.16 mph59%30.18 "Hg10 mi
12:00 pm61 °FSunny.15 mph63%30.18 "Hg10 mi
11:00 am57 °FSunny.13 mph77%30.21 "Hg10 mi
10:30 am55 °FSunny.12 mph77%30.21 "Hg10 mi
10:00 am52 °FSunny.9 mph88%30.21 "Hg10 mi
9:30 am52 °FSunny.8 mph88%30.21 "Hg10 mi
9:00 am50 °FSunny.10 mph88%30.21 "Hg10 mi
8:30 am50 °FSunny.12 mph88%30.21 "Hg10 mi
8:00 am50 °FSunny.12 mph88%30.21 "Hg10 mi
7:30 am48 °FSunny.8 mph94%30.21 "Hg10 mi
7:00 am46 °FSunny.10 mph93%30.21 "Hg10 mi
6:30 am46 °FClear.9 mph93%30.21 "Hg10 mi
6:00 am46 °FClear.10 mph93%30.21 "Hg10 mi
5:30 am46 °FClear.9 mph100%30.21 "Hg10 mi
5:00 am46 °FClear.7 mph100%30.21 "Hg10 mi
4:30 am46 °FClear.6 mph100%30.21 "Hg10 mi
4:00 am48 °FClear.7 mph94%30.21 "Hg10 mi
3:30 am48 °FPassing clouds.5 mph94%30.21 "HgN/A
3:00 am48 °FClear.6 mph94%30.21 "Hg10 mi
2:30 am48 °FClear.7 mph100%30.21 "Hg10 mi
2:00 am48 °FClear.6 mph94%30.21 "Hg10 mi
1:30 am50 °FPassing clouds.7 mph94%30.21 "HgN/A
1:00 am50 °FPassing clouds.7 mph88%30.21 "HgN/A
12:30 am50 °FClear.7 mph94%30.21 "Hg10 mi
12:00 am50 °FClear.8 mph94%30.21 "Hg10 mi
11:30 pm
Sun, Sep 26
50 °FClear.8 mph94%30.18 "Hg10 mi
11:00 pm50 °FClear.7 mph94%30.18 "Hg10 mi
10:30 pm52 °FClear.6 mph94%30.18 "Hg10 mi
10:00 pm54 °FClear.2 mph94%30.18 "Hg10 mi
9:30 pm54 °FClear.2 mph94%30.18 "Hg10 mi
9:00 pm54 °FClear.5 mph94%30.18 "Hg10 mi
8:30 pm54 °FClear.7 mph94%30.18 "Hg10 mi
8:00 pm55 °FClear.8 mph94%30.18 "Hg10 mi
7:30 pm54 °FClear.6 mph94%30.18 "Hg10 mi
7:00 pm55 °FClear.8 mph94%30.15 "Hg10 mi
6:30 pm57 °FSunny.8 mph88%30.15 "Hg10 mi
6:00 pm57 °FPassing clouds.8 mph88%30.15 "HgN/A
5:30 pm59 °FPassing clouds.8 mph82%30.15 "HgN/A
5:00 pm61 °FSunny.9 mph77%30.15 "Hg10 mi
4:30 pm63 °FSunny.9 mph59%30.15 "Hg10 mi
4:00 pm63 °FPassing clouds.9 mph59%30.15 "HgN/A
Weather by CustomWeather, © 2021

See weather overview